createdAt,value
2019-04-20T00:00:51.075Z,61.50
2019-04-20T00:03:19.460Z,57.83
2019-04-20T00:05:53.073Z,59.63
2019-04-20T00:08:31.100Z,57.95
2019-04-20T00:11:08.042Z,51.28
2019-04-20T00:13:47.697Z,61.75
2019-04-20T00:16:10.205Z,61.00
2019-04-20T00:18:48.269Z,60.57
2019-04-20T00:21:17.504Z,69.42
2019-04-20T00:23:51.383Z,67.67
2019-04-20T00:26:52.192Z,58.68
2019-04-20T00:29:19.859Z,62.55
2019-04-20T00:31:43.060Z,62.35
2019-04-20T00:34:09.205Z,64.32
2019-04-20T00:36:35.104Z,58.80
2019-04-20T00:39:11.298Z,60.45
2019-04-20T00:41:49.015Z,56.42
2019-04-20T00:44:21.996Z,57.83
2019-04-20T00:47:04.476Z,56.50
2019-04-20T00:49:37.086Z,57.03
2019-04-20T00:52:18.844Z,57.08
2019-04-20T00:54:26.514Z,55.80
2019-04-20T00:57:09.336Z,58.80
2019-04-20T00:59:51.893Z,60.47
2019-04-20T01:02:22.201Z,55.27
2019-04-20T01:05:02.460Z,58.93
2019-04-20T01:07:24.248Z,53.92
2019-04-20T01:09:49.951Z,54.95
2019-04-20T01:12:27.982Z,47.60
2019-04-20T01:15:01.054Z,53.67
2019-04-20T01:17:30.319Z,49.33
2019-04-20T01:20:02.698Z,47.97
2019-04-20T01:22:40.168Z,54.65
2019-04-20T01:25:18.250Z,53.00
2019-04-20T01:28:04.461Z,48.20
2019-04-20T01:30:25.261Z,43.80
2019-04-20T01:33:06.286Z,49.43
2019-04-20T01:35:40.927Z,42.73
2019-04-20T01:38:16.964Z,44.13
2019-04-20T01:40:29.625Z,38.90
2019-04-20T01:43:01.571Z,40.90
2019-04-20T01:45:37.666Z,35.70
2019-04-20T01:48:06.875Z,32.87
2019-04-20T01:50:49.902Z,29.87
2019-04-20T01:53:23.654Z,34.47
2019-04-20T01:56:01.438Z,30.10
2019-04-20T01:58:39.853Z,36.70
2019-04-20T02:00:58.827Z,33.00
2019-04-20T02:03:38.440Z,28.40
2019-04-20T02:06:11.637Z,30.75
2019-04-20T02:08:40.032Z,31.70
2019-04-20T02:11:18.690Z,25.13
2019-04-20T02:13:49.949Z,23.30
2019-04-20T02:16:26.958Z,26.80
2019-04-20T02:19:05.317Z,25.27
2019-04-20T02:21:37.872Z,29.97
2019-04-20T02:24:00.575Z,26.30
2019-04-20T02:26:30.126Z,27.27
2019-04-20T02:29:24.590Z,26.43
2019-04-20T02:32:15.818Z,30.40
2019-04-20T02:34:53.782Z,29.97
2019-04-20T02:37:36.572Z,27.63
2019-04-20T02:42:30.074Z,31.23
2019-04-20T02:45:00.711Z,32.60
2019-04-20T02:47:47.794Z,34.83
2019-04-20T02:52:48.890Z,23.50
2019-04-20T02:57:50.972Z,27.97
2019-04-20T03:00:12.300Z,28.60
2019-04-20T03:02:31.308Z,29.33
2019-04-20T03:05:06.444Z,27.77
2019-04-20T03:07:41.489Z,26.13
2019-04-20T03:10:17.990Z,32.30
2019-04-20T03:12:59.704Z,26.50
2019-04-20T03:15:36.022Z,23.20
2019-04-20T03:18:05.098Z,23.13
2019-04-20T03:20:36.790Z,29.33
2019-04-20T03:25:45.489Z,25.87
2019-04-20T03:28:16.117Z,29.80
2019-04-20T03:31:20.520Z,27.47
2019-04-20T03:33:44.695Z,28.93
2019-04-20T03:36:07.875Z,32.63
2019-04-20T03:38:29.861Z,29.40
2019-04-20T03:40:56.031Z,24.37
2019-04-20T03:43:15.990Z,22.87
2019-04-20T03:45:56.209Z,32.40
2019-04-20T03:48:35.893Z,38.53
2019-04-20T03:51:14.774Z,26.87
2019-04-20T03:53:50.216Z,29.43
2019-04-20T03:56:29.765Z,24.23
2019-04-20T03:58:57.229Z,24.93
2019-04-20T04:01:57.476Z,19.73
2019-04-20T04:04:10.958Z,18.57
2019-04-20T04:06:33.581Z,24.23
2019-04-20T04:09:11.400Z,25.80
2019-04-20T04:11:46.097Z,27.30
2019-04-20T04:14:03.049Z,23.93
2019-04-20T04:16:42.274Z,18.53
2019-04-20T04:19:17.685Z,21.57
2019-04-20T04:21:59.212Z,18.73
2019-04-20T04:24:26.063Z,18.13
2019-04-20T04:27:04.591Z,21.37
2019-04-20T04:29:41.892Z,20.47
2019-04-20T04:32:33.063Z,19.03
2019-04-20T04:34:51.417Z,17.47
2019-04-20T04:37:28.426Z,24.10
2019-04-20T04:40:01.049Z,18.83
2019-04-20T04:42:34.262Z,20.73
2019-04-20T04:44:53.597Z,17.17
2019-04-20T04:47:18.124Z,18.13
2019-04-20T04:49:57.863Z,23.83
2019-04-20T04:52:28.922Z,23.93
2019-04-20T04:55:07.584Z,26.43
2019-04-20T04:57:30.444Z,20.53
2019-04-20T05:00:01.818Z,24.67
2019-04-20T05:02:41.262Z,20.23
2019-04-20T05:05:31.173Z,21.23
2019-04-20T05:07:51.774Z,21.93
2019-04-20T05:10:15.990Z,22.87
2019-04-20T05:12:48.169Z,18.67
2019-04-20T05:15:32.413Z,15.97
2019-04-20T05:18:16.318Z,23.00
2019-04-20T05:20:51.537Z,22.27
2019-04-20T05:23:16.284Z,20.90
2019-04-20T05:25:58.675Z,17.83
2019-04-20T05:28:24.040Z,14.20
2019-04-20T05:30:48.629Z,14.03
2019-04-20T05:33:30.501Z,17.67
2019-04-20T05:36:11.693Z,17.53
2019-04-20T05:38:47.210Z,15.87
2019-04-20T05:41:16.657Z,12.57
2019-04-20T05:43:51.439Z,15.40
2019-04-20T05:46:26.180Z,14.20
2019-04-20T05:49:02.606Z,14.47
2019-04-20T05:51:40.699Z,11.93
2019-04-20T05:54:09.774Z,18.42
2019-04-20T05:56:46.854Z,13.10
2019-04-20T05:59:11.499Z,16.10
2019-04-20T06:01:52.792Z,15.53
2019-04-20T06:04:30.089Z,16.73
2019-04-20T06:06:55.429Z,9.43
2019-04-20T06:09:28.574Z,14.43
2019-04-20T06:14:31.605Z,12.65
2019-04-20T06:17:11.214Z,12.43
2019-04-20T06:19:39.265Z,18.67
2019-04-20T06:22:28.478Z,11.03
2019-04-20T06:25:10.077Z,12.43
2019-04-20T06:27:30.320Z,15.13
2019-04-20T06:29:55.917Z,12.10
2019-04-20T06:32:38.705Z,11.30
2019-04-20T06:35:18.719Z,11.77
2019-04-20T06:37:45.803Z,11.90
2019-04-20T06:40:36.407Z,18.10
2019-04-20T06:42:48.340Z,12.10
2019-04-20T06:45:27.784Z,10.93
2019-04-20T06:48:01.016Z,13.72
2019-04-20T06:50:24.372Z,12.15
2019-04-20T06:53:13.279Z,13.43
2019-04-20T06:55:42.904Z,14.23
2019-04-20T06:58:24.877Z,15.70
2019-04-20T07:00:42.029Z,16.27
2019-04-20T07:03:30.593Z,12.20
2019-04-20T07:05:50.515Z,8.20
2019-04-20T07:08:34.136Z,7.55
2019-04-20T07:11:02.164Z,11.43
2019-04-20T07:13:20.358Z,6.75
2019-04-20T07:15:53.114Z,11.35
2019-04-20T07:18:35.297Z,12.33
2019-04-20T07:21:07.170Z,10.72
2019-04-20T07:23:43.715Z,8.15
2019-04-20T07:26:21.017Z,7.72
2019-04-20T07:28:54.375Z,7.90
2019-04-20T07:31:18.923Z,6.20
2019-04-20T07:33:52.174Z,4.87
2019-04-20T07:36:26.580Z,6.05
2019-04-20T07:39:03.156Z,7.75
2019-04-20T07:41:32.999Z,8.33
2019-04-20T07:44:15.767Z,9.48
2019-04-20T07:46:48.485Z,8.50
2019-04-20T07:49:07.621Z,5.67
2019-04-20T07:51:26.614Z,8.95
2019-04-20T07:54:24.691Z,6.35
2019-04-20T07:56:47.694Z,15.20
2019-04-20T07:59:11.273Z,13.08
2019-04-20T08:02:00.832Z,9.23
2019-04-20T08:04:22.616Z,6.25
2019-04-20T08:06:46.874Z,7.95
2019-04-20T08:09:22.035Z,9.55
2019-04-20T08:12:12.388Z,9.73
2019-04-20T08:14:49.056Z,7.72
2019-04-20T08:17:20.369Z,8.48
2019-04-20T08:19:45.684Z,7.53
2019-04-20T08:22:27.259Z,7.72
2019-04-20T08:24:51.847Z,6.15
2019-04-20T08:27:13.158Z,9.58
2019-04-20T08:29:58.800Z,8.03
2019-04-20T08:32:40.307Z,7.62
2019-04-20T08:35:22.205Z,7.47
2019-04-20T08:38:00.857Z,6.03
2019-04-20T08:40:24.340Z,6.50
2019-04-20T08:43:04.631Z,8.23
2019-04-20T08:45:37.874Z,7.22
2019-04-20T08:48:11.309Z,9.20
2019-04-20T08:50:34.043Z,7.58
2019-04-20T08:55:42.518Z,7.78
2019-04-20T08:57:59.920Z,6.55
2019-04-20T09:00:39.665Z,6.80
2019-04-20T09:03:13.190Z,2.80
2019-04-20T09:05:49.963Z,4.25
2019-04-20T09:08:17.758Z,3.33
2019-04-20T09:11:02.685Z,3.35
2019-04-20T09:13:26.944Z,3.27
2019-04-20T09:15:51.324Z,7.85
2019-04-20T09:18:34.298Z,3.83
2019-04-20T09:21:06.797Z,2.92
2019-04-20T09:23:49.626Z,3.72
2019-04-20T09:26:23.137Z,4.95
2019-04-20T09:28:55.698Z,7.70
2019-04-20T09:31:31.010Z,2.87
2019-04-20T09:34:07.574Z,4.35
2019-04-20T09:36:44.724Z,3.22
2019-04-20T09:39:11.521Z,3.52
2019-04-20T09:41:58.543Z,2.85
2019-04-20T09:44:11.047Z,2.90
2019-04-20T09:46:49.266Z,5.12
2019-04-20T09:49:32.391Z,4.92
2019-04-20T09:52:01.388Z,4.47
2019-04-20T09:54:41.586Z,5.08
2019-04-20T09:57:13.162Z,3.92
2019-04-20T09:59:44.659Z,3.90
2019-04-20T10:02:08.878Z,2.87
2019-04-20T10:04:35.457Z,5.37
2019-04-20T10:07:13.812Z,2.95
2019-04-20T10:09:44.846Z,3.80
2019-04-20T10:12:15.591Z,4.97
2019-04-20T10:14:49.049Z,3.52
2019-04-20T10:17:20.921Z,4.45
2019-04-20T10:19:53.438Z,4.00
2019-04-20T10:22:26.661Z,2.52
2019-04-20T10:24:57.824Z,2.65
2019-04-20T10:27:30.646Z,5.67
2019-04-20T10:30:05.643Z,6.17
2019-04-20T10:32:45.581Z,2.37
2019-04-20T10:35:18.559Z,5.33
2019-04-20T10:37:53.634Z,5.42
2019-04-20T10:40:38.051Z,3.12
2019-04-20T10:43:01.068Z,2.90
2019-04-20T10:45:32.973Z,4.85
2019-04-20T10:48:05.418Z,6.83
2019-04-20T10:50:38.968Z,2.70
2019-04-20T10:53:12.011Z,4.47
2019-04-20T10:55:45.319Z,8.75
2019-04-20T10:58:17.936Z,3.70
2019-04-20T11:00:50.265Z,2.45
2019-04-20T11:03:24.844Z,8.40
2019-04-20T11:05:58.442Z,4.15
2019-04-20T11:08:30.705Z,2.50
2019-04-20T11:11:10.858Z,3.33
2019-04-20T11:13:35.621Z,3.65
2019-04-20T11:16:08.535Z,3.37
2019-04-20T11:18:41.117Z,6.83
2019-04-20T11:21:13.241Z,7.00
2019-04-20T11:23:44.550Z,4.15
2019-04-20T11:26:16.141Z,4.67
2019-04-20T11:28:48.349Z,4.10
2019-04-20T11:31:20.024Z,5.62
2019-04-20T11:33:52.234Z,3.42
2019-04-20T11:36:23.285Z,3.85
2019-04-20T11:38:54.433Z,4.78
2019-04-20T11:41:28.841Z,3.45
2019-04-20T11:43:58.086Z,3.58
2019-04-20T11:46:30.413Z,4.10
2019-04-20T11:49:01.498Z,2.77
2019-04-20T11:51:32.267Z,2.92
2019-04-20T11:54:04.515Z,4.08
2019-04-20T11:56:40.194Z,2.98
2019-04-20T12:00:00.903Z,8.80
2019-04-20T12:03:16.064Z,7.92
2019-04-20T12:06:04.797Z,9.38
2019-04-20T12:09:05.141Z,5.00
2019-04-20T12:11:59.533Z,3.37
2019-04-20T12:14:20.772Z,2.40
2019-04-20T12:17:15.947Z,5.12
2019-04-20T12:23:00.539Z,11.10
2019-04-20T12:25:37.614Z,5.37
2019-04-20T12:28:53.822Z,4.85
2019-04-20T12:32:04.160Z,4.05
2019-04-20T12:38:46.424Z,3.65
2019-04-20T12:42:33.189Z,3.00
2019-04-20T12:45:53.813Z,2.58
2019-04-20T12:52:10.338Z,4.00
2019-04-20T12:54:44.237Z,3.62
2019-04-20T12:57:14.517Z,2.15
2019-04-20T12:59:47.840Z,4.58
2019-04-20T13:02:19.656Z,3.25
2019-04-20T13:04:53.293Z,7.42
2019-04-20T13:07:25.038Z,6.28
2019-04-20T13:09:56.906Z,2.92
2019-04-20T13:12:30.430Z,2.12
2019-04-20T13:15:06.610Z,2.80
2019-04-20T13:17:37.991Z,2.37
2019-04-20T13:20:10.042Z,7.58
2019-04-20T13:22:41.220Z,2.40
2019-04-20T13:25:16.935Z,4.03
2019-04-20T13:27:49.110Z,5.45
2019-04-20T13:30:25.910Z,12.65
2019-04-20T13:32:57.468Z,3.40
2019-04-20T13:35:28.305Z,4.03
2019-04-20T13:38:00.285Z,3.52
2019-04-20T13:40:33.436Z,3.42
2019-04-20T13:43:05.807Z,4.95
2019-04-20T13:45:39.165Z,4.28
2019-04-20T13:48:10.998Z,4.22
2019-04-20T13:50:42.433Z,5.28
2019-04-20T13:53:13.170Z,2.37
2019-04-20T13:55:45.477Z,2.58
2019-04-20T13:58:18.852Z,2.40
2019-04-20T14:00:55.552Z,3.25
2019-04-20T14:03:30.016Z,3.77
2019-04-20T14:06:02.650Z,2.08
2019-04-20T14:08:36.029Z,8.93
2019-04-20T14:11:11.474Z,3.02
2019-04-20T14:13:50.102Z,4.67
2019-04-20T14:16:16.544Z,4.87
2019-04-20T14:18:49.389Z,8.28
2019-04-20T14:21:20.465Z,5.15
2019-04-20T14:23:51.352Z,8.50
2019-04-20T14:26:23.032Z,2.17
2019-04-20T14:28:54.789Z,2.55
2019-04-20T14:31:27.940Z,5.47
2019-04-20T14:33:59.148Z,4.45
2019-04-20T14:36:30.863Z,7.97
2019-04-20T14:39:02.461Z,6.33
2019-04-20T14:41:36.049Z,4.92
2019-04-20T14:44:07.904Z,3.60
2019-04-20T14:46:39.946Z,6.65
2019-04-20T14:49:10.957Z,4.65
2019-04-20T14:51:41.948Z,3.35
2019-04-20T14:54:13.886Z,4.97
2019-04-20T14:56:45.384Z,4.62
2019-04-20T14:59:18.270Z,10.05
2019-04-20T15:01:52.418Z,8.18
2019-04-20T15:04:25.512Z,8.68
2019-04-20T15:06:56.909Z,4.42
2019-04-20T15:09:28.760Z,2.85
2019-04-20T15:12:00.937Z,5.00
2019-04-20T15:14:32.489Z,7.42
2019-04-20T15:17:04.761Z,5.00
2019-04-20T15:19:37.344Z,6.97
2019-04-20T15:22:11.436Z,5.15
2019-04-20T15:24:42.268Z,6.42
2019-04-20T15:27:16.469Z,10.10
2019-04-20T15:29:48.547Z,8.63
2019-04-20T15:32:20.821Z,3.92
2019-04-20T15:34:52.998Z,4.25
2019-04-20T15:37:24.290Z,4.87
2019-04-20T15:39:55.268Z,3.52
2019-04-20T15:42:27.510Z,4.80
2019-04-20T15:44:58.507Z,15.72
2019-04-20T15:47:29.997Z,10.25
2019-04-20T15:50:02.232Z,8.03
2019-04-20T15:52:37.579Z,6.15
2019-04-20T15:55:14.377Z,6.12
2019-04-20T15:57:40.670Z,4.58
2019-04-20T16:00:12.270Z,5.62
2019-04-20T16:02:45.308Z,11.00
2019-04-20T16:05:18.621Z,8.33
2019-04-20T16:07:56.209Z,5.33
2019-04-20T16:10:23.324Z,6.50
2019-04-20T16:13:05.678Z,3.70
2019-04-20T16:15:27.566Z,2.83
2019-04-20T16:18:00.909Z,8.00
2019-04-20T16:20:46.030Z,5.53
2019-04-20T16:23:06.946Z,5.75
2019-04-20T16:28:27.785Z,9.20
2019-04-20T16:30:59.435Z,4.58
2019-04-20T16:33:30.958Z,5.20
2019-04-20T16:36:02.637Z,4.60
2019-04-20T16:38:35.227Z,23.00
2019-04-20T16:41:08.448Z,12.58
2019-04-20T16:43:44.580Z,5.85
2019-04-20T16:46:18.299Z,113.05
2019-04-20T16:48:48.491Z,20.15
2019-04-20T16:51:22.896Z,13.03
2019-04-20T16:53:56.031Z,8.63
2019-04-20T16:56:29.175Z,9.25
2019-04-20T16:59:06.134Z,10.15
2019-04-20T17:01:35.216Z,8.45
2019-04-20T17:04:13.561Z,13.55
2019-04-20T17:06:42.835Z,9.58
2019-04-20T17:09:15.667Z,5.80
2019-04-20T17:11:47.883Z,76.75
2019-04-20T17:14:20.870Z,36.13
2019-04-20T17:16:53.443Z,6.90
2019-04-20T17:19:25.959Z,9.23
2019-04-20T17:21:59.166Z,11.55
2019-04-20T17:24:31.515Z,16.12
2019-04-20T17:27:05.266Z,15.32
2019-04-20T17:29:41.120Z,30.70
2019-04-20T17:32:13.762Z,19.17
2019-04-20T17:35:00.020Z,21.02
2019-04-20T17:37:18.443Z,22.77
2019-04-20T17:40:12.935Z,14.25
2019-04-20T17:42:36.323Z,12.10
2019-04-20T17:45:03.829Z,18.65
2019-04-20T17:47:47.311Z,19.67
2019-04-20T17:50:20.027Z,19.73
2019-04-20T17:52:52.262Z,20.10
2019-04-20T17:55:22.127Z,16.32
2019-04-20T17:57:43.514Z,14.03
2019-04-20T18:00:17.600Z,24.98
2019-04-20T18:03:07.383Z,12.00
2019-04-20T18:05:44.789Z,12.78
2019-04-20T18:08:22.449Z,13.25
2019-04-20T18:10:45.915Z,12.58
2019-04-20T18:13:12.068Z,11.80
2019-04-20T18:15:54.086Z,11.90
2019-04-20T18:18:27.427Z,11.50
2019-04-20T18:20:48.529Z,12.25
2019-04-20T18:23:27.274Z,15.68
2019-04-20T18:26:15.687Z,19.05
2019-04-20T18:28:54.852Z,29.02
2019-04-20T18:31:05.322Z,40.10
2019-04-20T18:33:38.383Z,21.05
2019-04-20T18:36:13.354Z,17.77
2019-04-20T18:38:54.282Z,21.40
2019-04-20T18:41:28.828Z,14.50
2019-04-20T18:43:57.376Z,14.83
2019-04-20T18:46:49.376Z,13.30
2019-04-20T18:49:14.741Z,14.95
2019-04-20T18:51:33.445Z,14.43
2019-04-20T18:54:08.285Z,21.20
2019-04-20T18:56:43.825Z,20.20
2019-04-20T18:59:11.342Z,15.72
2019-04-20T19:01:44.955Z,17.85
2019-04-20T19:04:17.566Z,15.48
2019-04-20T19:06:50.037Z,17.00
2019-04-20T19:09:27.146Z,19.92
2019-04-20T19:12:00.844Z,12.13
2019-04-20T19:14:35.617Z,13.20
2019-04-20T19:17:13.929Z,12.60
2019-04-20T19:19:43.379Z,28.98
2019-04-20T19:22:12.254Z,17.23
2019-04-20T19:24:45.006Z,16.62
2019-04-20T19:27:18.880Z,14.58
2019-04-20T19:29:58.283Z,20.65
2019-04-20T19:32:38.481Z,19.90
2019-04-20T19:55:31.347Z,39.73
2019-04-20T19:58:03.016Z,32.20
2019-04-20T20:00:32.898Z,35.60
2019-04-20T20:03:05.850Z,40.50
2019-04-20T20:10:44.201Z,56.10
2019-04-20T20:13:15.503Z,58.80
2019-04-20T20:25:53.270Z,314.60
2019-04-20T20:28:33.542Z,260.70
2019-04-20T20:31:08.347Z,239.93
2019-04-20T20:33:51.043Z,277.30
2019-04-20T20:38:43.664Z,257.73
2019-04-20T20:41:21.422Z,200.90
2019-04-20T20:43:56.348Z,204.28
2019-04-20T20:46:29.446Z,168.32
2019-04-20T20:49:11.755Z,178.30
2019-04-20T20:51:52.803Z,235.30
2019-04-20T20:54:08.995Z,232.22
2019-04-20T20:56:35.631Z,219.93
2019-04-20T20:59:13.926Z,220.45
2019-04-20T21:01:50.124Z,209.30
2019-04-20T21:04:13.097Z,180.75
2019-04-20T21:06:45.031Z,171.70
2019-04-20T21:09:16.677Z,177.45
2019-04-20T21:11:57.339Z,132.20
2019-04-20T21:14:27.900Z,138.40
2019-04-20T21:17:06.537Z,134.43
2019-04-20T21:22:11.333Z,283.98
2019-04-20T21:24:39.972Z,185.05
2019-04-20T21:27:15.298Z,121.70
2019-04-20T21:29:51.404Z,85.10
2019-04-20T21:32:23.340Z,73.07
2019-04-20T21:35:02.659Z,80.75
2019-04-20T21:37:30.585Z,72.82
2019-04-20T21:40:14.036Z,72.87
2019-04-20T21:42:44.549Z,73.10
2019-04-20T21:45:16.417Z,72.75
2019-04-20T21:47:45.269Z,68.92
2019-04-20T21:50:34.633Z,68.78
2019-04-20T21:52:55.213Z,67.87
2019-04-20T21:55:23.762Z,80.60
2019-04-20T21:58:00.159Z,73.83
2019-04-20T22:00:38.517Z,78.45
2019-04-20T22:03:09.835Z,63.63
2019-04-20T22:05:40.333Z,66.97
2019-04-20T22:08:15.737Z,70.62
2019-04-20T22:10:44.989Z,63.58
2019-04-20T22:13:19.402Z,61.18
2019-04-20T22:15:56.705Z,63.50
2019-04-20T22:18:25.384Z,63.00
2019-04-20T22:21:11.191Z,64.72
2019-04-20T22:23:49.907Z,67.12
2019-04-20T22:26:17.393Z,59.00
2019-04-20T22:28:38.316Z,66.37
2019-04-20T22:31:11.919Z,64.77
2019-04-20T22:33:46.847Z,67.67
2019-04-20T22:36:18.395Z,60.80
2019-04-20T22:38:55.977Z,53.33
2019-04-20T22:41:27.698Z,55.48
2019-04-20T22:44:01.799Z,51.88
2019-04-20T22:46:34.088Z,57.50
2019-04-20T22:49:22.040Z,58.83
2019-04-20T22:51:50.512Z,60.05
2019-04-20T22:54:27.615Z,55.48
2019-04-20T22:56:57.600Z,52.90
2019-04-20T22:59:22.855Z,54.38
2019-04-20T23:01:58.233Z,59.95
2019-04-20T23:04:26.673Z,62.73
2019-04-20T23:06:59.130Z,53.08
2019-04-20T23:09:34.186Z,55.10
2019-04-20T23:12:10.163Z,53.17
2019-04-20T23:14:38.389Z,57.95
2019-04-20T23:17:10.410Z,51.90
2019-04-20T23:19:48.602Z,51.55
2019-04-20T23:22:16.036Z,41.77
2019-04-20T23:24:48.983Z,48.70
2019-04-20T23:27:26.301Z,50.80
2019-04-20T23:29:55.259Z,43.73
2019-04-20T23:32:30.162Z,35.78
2019-04-20T23:35:05.869Z,37.35
2019-04-20T23:37:38.521Z,36.10
2019-04-20T23:40:11.313Z,36.90
2019-04-20T23:42:45.942Z,36.38
2019-04-20T23:45:26.930Z,38.17
2019-04-20T23:47:58.839Z,37.83
2019-04-20T23:50:49.012Z,39.20
2019-04-20T23:53:21.222Z,39.20
2019-04-20T23:55:35.981Z,37.20
2019-04-20T23:58:10.756Z,36.40
